FSIA/SEZ METAR and TAF weather

Enter ICAO airport designator
Station Type Date Time Source
FSIA METAR 2021/04/13 08:00 UTC NOAA

FSIA 130800Z VRB03KT 9999 TS FEW012 FEW017CB BKN019 28/25 Q1011 NOSIG


Station Type Date Time Source
FSIA Decoded METAR 2021/04/13 08:00 UTC NOAA

Seychelles Inter-National Airport, Seychelles (FSIA) 04-40S 055-31E 3M
Apr 13, 2021 - 04:00 AM EDT / 2021.04.13 0800 UTC
Wind: Variable at 3 MPH (3 KT):0
Visibility: greater than 7 mile(s):0
Sky conditions: mostly cloudy
Weather: thunder; Cumulonimbus clouds observed
Temperature: 82 F (28 C)
Dew Point: 77 F (25 C)
Relative Humidity: 83%
Pressure (altimeter): 29.85 in. Hg (1011 hPa)
ob: FSIA 130800Z VRB03KT 9999 TS FEW012 FEW017CB BKN019 28/25 Q1011 NOSIG
cycle: 8

Station Type Date Time Source
FSIA TAF 2021/04/13 06:16 UTC NOAA

TAF FSIA 130502Z 1306/1406 VRB02KT 9999 FEW018CB SCT021
TEMPO 1306/1311 8000 SHRA FEW010 FEW016CB BKN018
TEMPO 1308/1310 5000 TSRA FEW008 FEW014CB BKN016

Example: see airport list